sensor_id;sensor_type;location;lat;lon;timestamp;P1;durP1;ratioP1;P2;durP2;ratioP2
4049;SDS011;2039;50.894;6.888;2022-09-12T00:01:15;72.97;;;13.07;;
4049;SDS011;2039;50.894;6.888;2022-09-12T00:03:43;73.27;;;14.77;;
4049;SDS011;2039;50.894;6.888;2022-09-12T00:06:11;72.83;;;14.20;;
4049;SDS011;2039;50.894;6.888;2022-09-12T00:09:05;73.47;;;14.80;;
4049;SDS011;2039;50.894;6.888;2022-09-12T00:11:36;74.67;;;15.07;;
4049;SDS011;2039;50.894;6.888;2022-09-12T00:14:03;71.90;;;14.60;;
4049;SDS011;2039;50.894;6.888;2022-09-12T00:16:30;73.57;;;14.50;;
4049;SDS011;2039;50.894;6.888;2022-09-12T00:19:00;80.40;;;15.17;;
4049;SDS011;2039;50.894;6.888;2022-09-12T00:21:26;74.63;;;15.03;;
4049;SDS011;2039;50.894;6.888;2022-09-12T00:23:52;72.53;;;14.50;;
4049;SDS011;2039;50.894;6.888;2022-09-12T00:26:18;73.00;;;14.40;;
4049;SDS011;2039;50.894;6.888;2022-09-12T00:28:45;74.80;;;15.87;;
4049;SDS011;2039;50.894;6.888;2022-09-12T00:31:12;74.37;;;15.03;;
4049;SDS011;2039;50.894;6.888;2022-09-12T00:33:42;73.97;;;14.43;;
4049;SDS011;2039;50.894;6.888;2022-09-12T00:36:12;75.77;;;17.23;;
4049;SDS011;2039;50.894;6.888;2022-09-12T00:38:42;74.13;;;15.60;;
4049;SDS011;2039;50.894;6.888;2022-09-12T00:41:14;78.50;;;15.90;;
4049;SDS011;2039;50.894;6.888;2022-09-12T00:43:43;74.63;;;17.67;;
4049;SDS011;2039;50.894;6.888;2022-09-12T00:48:46;75.47;;;16.37;;
4049;SDS011;2039;50.894;6.888;2022-09-12T00:51:33;73.97;;;16.50;;
4049;SDS011;2039;50.894;6.888;2022-09-12T00:54:02;73.37;;;15.27;;
4049;SDS011;2039;50.894;6.888;2022-09-12T00:56:34;72.70;;;15.60;;
4049;SDS011;2039;50.894;6.888;2022-09-12T00:59:17;73.17;;;14.60;;
4049;SDS011;2039;50.894;6.888;2022-09-12T01:01:48;75.07;;;14.43;;
4049;SDS011;2039;50.894;6.888;2022-09-12T01:04:15;73.30;;;14.97;;
4049;SDS011;2039;50.894;6.888;2022-09-12T01:06:43;73.90;;;17.00;;
4049;SDS011;2039;50.894;6.888;2022-09-12T01:09:17;77.80;;;15.27;;
4049;SDS011;2039;50.894;6.888;2022-09-12T01:11:45;74.80;;;16.83;;
4049;SDS011;2039;50.894;6.888;2022-09-12T01:14:13;80.57;;;17.27;;
4049;SDS011;2039;50.894;6.888;2022-09-12T01:16:40;80.10;;;16.13;;
4049;SDS011;2039;50.894;6.888;2022-09-12T01:30:20;78.60;;;16.33;;
4049;SDS011;2039;50.894;6.888;2022-09-12T01:38:28;79.10;;;19.73;;
4049;SDS011;2039;50.894;6.888;2022-09-12T01:48:51;79.60;;;17.87;;
4049;SDS011;2039;50.894;6.888;2022-09-12T01:53:53;80.17;;;19.50;;
4049;SDS011;2039;50.894;6.888;2022-09-12T01:56:26;83.23;;;20.10;;
4049;SDS011;2039;50.894;6.888;2022-09-12T01:59:02;78.60;;;19.80;;
4049;SDS011;2039;50.894;6.888;2022-09-12T02:01:33;80.37;;;21.40;;
4049;SDS011;2039;50.894;6.888;2022-09-12T02:04:10;81.07;;;20.10;;
4049;SDS011;2039;50.894;6.888;2022-09-12T02:06:44;81.00;;;19.23;;
4049;SDS011;2039;50.894;6.888;2022-09-12T02:09:39;83.07;;;22.57;;
4049;SDS011;2039;50.894;6.888;2022-09-12T02:12:19;80.77;;;20.17;;
4049;SDS011;2039;50.894;6.888;2022-09-12T02:14:50;82.47;;;21.80;;
4049;SDS011;2039;50.894;6.888;2022-09-12T02:17:21;80.00;;;20.30;;
4049;SDS011;2039;50.894;6.888;2022-09-12T02:19:50;83.90;;;24.27;;
4049;SDS011;2039;50.894;6.888;2022-09-12T02:22:21;81.10;;;22.77;;
4049;SDS011;2039;50.894;6.888;2022-09-12T02:24:51;81.50;;;21.60;;
4049;SDS011;2039;50.894;6.888;2022-09-12T02:27:23;85.70;;;24.63;;
4049;SDS011;2039;50.894;6.888;2022-09-12T02:30:01;84.30;;;24.97;;
4049;SDS011;2039;50.894;6.888;2022-09-12T02:32:31;86.20;;;23.60;;
4049;SDS011;2039;50.894;6.888;2022-09-12T02:40:40;81.93;;;21.90;;
4049;SDS011;2039;50.894;6.888;2022-09-12T02:43:06;86.67;;;27.90;;
4049;SDS011;2039;50.894;6.888;2022-09-12T02:45:32;89.20;;;28.67;;
4049;SDS011;2039;50.894;6.888;2022-09-12T02:48:13;84.73;;;23.87;;
4049;SDS011;2039;50.894;6.888;2022-09-12T02:51:06;86.20;;;26.60;;
4049;SDS011;2039;50.894;6.888;2022-09-12T02:53:32;89.37;;;28.50;;
4049;SDS011;2039;50.894;6.888;2022-09-12T02:55:59;85.20;;;28.10;;
4049;SDS011;2039;50.894;6.888;2022-09-12T02:58:26;85.67;;;29.73;;
4049;SDS011;2039;50.894;6.888;2022-09-12T03:03:51;84.27;;;26.80;;
4049;SDS011;2039;50.894;6.888;2022-09-12T03:09:01;87.73;;;28.40;;
4049;SDS011;2039;50.894;6.888;2022-09-12T03:14:21;84.97;;;29.97;;
4049;SDS011;2039;50.894;6.888;2022-09-12T03:25:16;86.37;;;32.20;;
4049;SDS011;2039;50.894;6.888;2022-09-12T03:28:02;86.73;;;35.70;;
4049;SDS011;2039;50.894;6.888;2022-09-12T03:30:38;87.30;;;39.47;;
4049;SDS011;2039;50.894;6.888;2022-09-12T03:33:10;90.97;;;40.57;;
4049;SDS011;2039;50.894;6.888;2022-09-12T03:35:37;90.47;;;39.87;;
4049;SDS011;2039;50.894;6.888;2022-09-12T03:38:03;87.10;;;37.70;;
4049;SDS011;2039;50.894;6.888;2022-09-12T03:40:29;86.07;;;41.97;;
4049;SDS011;2039;50.894;6.888;2022-09-12T03:42:55;87.03;;;38.57;;
4049;SDS011;2039;50.894;6.888;2022-09-12T03:45:20;86.57;;;34.07;;
4049;SDS011;2039;50.894;6.888;2022-09-12T03:47:46;88.87;;;37.67;;
4049;SDS011;2039;50.894;6.888;2022-09-12T03:50:11;87.43;;;31.13;;
4049;SDS011;2039;50.894;6.888;2022-09-12T03:52:37;88.30;;;33.70;;
4049;SDS011;2039;50.894;6.888;2022-09-12T03:55:03;87.30;;;34.20;;
4049;SDS011;2039;50.894;6.888;2022-09-12T03:57:29;86.63;;;35.40;;
4049;SDS011;2039;50.894;6.888;2022-09-12T03:59:55;87.47;;;34.13;;
4049;SDS011;2039;50.894;6.888;2022-09-12T04:02:20;85.73;;;33.53;;
4049;SDS011;2039;50.894;6.888;2022-09-12T04:04:46;84.33;;;33.57;;
4049;SDS011;2039;50.894;6.888;2022-09-12T04:07:13;86.40;;;34.03;;
4049;SDS011;2039;50.894;6.888;2022-09-12T04:09:39;84.63;;;34.97;;
4049;SDS011;2039;50.894;6.888;2022-09-12T04:12:05;90.07;;;40.77;;
4049;SDS011;2039;50.894;6.888;2022-09-12T04:14:31;87.20;;;35.57;;
4049;SDS011;2039;50.894;6.888;2022-09-12T04:16:58;87.57;;;31.67;;
4049;SDS011;2039;50.894;6.888;2022-09-12T04:19:24;89.87;;;36.23;;
4049;SDS011;2039;50.894;6.888;2022-09-12T04:21:51;87.23;;;34.07;;
4049;SDS011;2039;50.894;6.888;2022-09-12T04:24:17;86.17;;;37.37;;
4049;SDS011;2039;50.894;6.888;2022-09-12T04:26:42;89.37;;;39.97;;
4049;SDS011;2039;50.894;6.888;2022-09-12T04:29:10;86.07;;;37.37;;
4049;SDS011;2039;50.894;6.888;2022-09-12T04:31:36;89.83;;;36.90;;
4049;SDS011;2039;50.894;6.888;2022-09-12T04:34:02;91.67;;;43.53;;
4049;SDS011;2039;50.894;6.888;2022-09-12T04:36:29;89.47;;;39.23;;
4049;SDS011;2039;50.894;6.888;2022-09-12T04:38:57;91.63;;;41.10;;
4049;SDS011;2039;50.894;6.888;2022-09-12T04:41:28;93.17;;;44.20;;
4049;SDS011;2039;50.894;6.888;2022-09-12T04:43:55;97.90;;;47.07;;
4049;SDS011;2039;50.894;6.888;2022-09-12T04:46:23;97.50;;;48.47;;
4049;SDS011;2039;50.894;6.888;2022-09-12T04:48:49;91.30;;;45.87;;
4049;SDS011;2039;50.894;6.888;2022-09-12T04:51:17;91.80;;;53.70;;
4049;SDS011;2039;50.894;6.888;2022-09-12T04:53:47;99.10;;;59.03;;
4049;SDS011;2039;50.894;6.888;2022-09-12T04:56:14;93.50;;;51.30;;
4049;SDS011;2039;50.894;6.888;2022-09-12T04:58:40;90.10;;;38.57;;
4049;SDS011;2039;50.894;6.888;2022-09-12T05:01:07;90.17;;;42.07;;
4049;SDS011;2039;50.894;6.888;2022-09-12T05:03:34;89.93;;;43.70;;
4049;SDS011;2039;50.894;6.888;2022-09-12T05:06:03;92.27;;;43.73;;
4049;SDS011;2039;50.894;6.888;2022-09-12T05:08:34;90.40;;;42.73;;
4049;SDS011;2039;50.894;6.888;2022-09-12T05:11:04;90.33;;;40.73;;
4049;SDS011;2039;50.894;6.888;2022-09-12T05:13:32;88.83;;;42.57;;
4049;SDS011;2039;50.894;6.888;2022-09-12T05:15:59;91.70;;;43.10;;
4049;SDS011;2039;50.894;6.888;2022-09-12T05:18:30;91.70;;;37.67;;
4049;SDS011;2039;50.894;6.888;2022-09-12T05:20:58;88.37;;;40.87;;
4049;SDS011;2039;50.894;6.888;2022-09-12T05:23:24;89.30;;;45.23;;
4049;SDS011;2039;50.894;6.888;2022-09-12T05:25:52;88.70;;;44.50;;
4049;SDS011;2039;50.894;6.888;2022-09-12T05:28:19;90.17;;;45.97;;
4049;SDS011;2039;50.894;6.888;2022-09-12T05:30:46;90.00;;;42.67;;
4049;SDS011;2039;50.894;6.888;2022-09-12T05:33:13;91.93;;;46.00;;
4049;SDS011;2039;50.894;6.888;2022-09-12T05:35:39;88.47;;;40.37;;
4049;SDS011;2039;50.894;6.888;2022-09-12T05:38:08;95.20;;;57.43;;
4049;SDS011;2039;50.894;6.888;2022-09-12T05:40:33;99.70;;;54.97;;
4049;SDS011;2039;50.894;6.888;2022-09-12T05:42:59;93.37;;;49.57;;
4049;SDS011;2039;50.894;6.888;2022-09-12T05:45:25;93.30;;;50.50;;
4049;SDS011;2039;50.894;6.888;2022-09-12T05:47:51;98.93;;;65.40;;
4049;SDS011;2039;50.894;6.888;2022-09-12T05:50:18;99.73;;;75.37;;
4049;SDS011;2039;50.894;6.888;2022-09-12T05:52:44;98.63;;;67.10;;
4049;SDS011;2039;50.894;6.888;2022-09-12T05:55:10;99.60;;;75.17;;
4049;SDS011;2039;50.894;6.888;2022-09-12T05:57:36;98.83;;;78.13;;
4049;SDS011;2039;50.894;6.888;2022-09-12T06:00:03;104.83;;;82.00;;
4049;SDS011;2039;50.894;6.888;2022-09-12T06:02:29;102.47;;;80.80;;
4049;SDS011;2039;50.894;6.888;2022-09-12T06:04:55;105.53;;;91.40;;
4049;SDS011;2039;50.894;6.888;2022-09-12T06:07:21;114.83;;;101.73;;
4049;SDS011;2039;50.894;6.888;2022-09-12T06:09:47;111.57;;;99.57;;
4049;SDS011;2039;50.894;6.888;2022-09-12T06:12:12;123.77;;;111.30;;
4049;SDS011;2039;50.894;6.888;2022-09-12T06:14:38;127.80;;;115.07;;
4049;SDS011;2039;50.894;6.888;2022-09-12T06:17:04;140.97;;;127.63;;
4049;SDS011;2039;50.894;6.888;2022-09-12T06:19:29;134.80;;;121.70;;
4049;SDS011;2039;50.894;6.888;2022-09-12T06:21:55;134.20;;;121.43;;
4049;SDS011;2039;50.894;6.888;2022-09-12T06:24:21;123.67;;;111.07;;
4049;SDS011;2039;50.894;6.888;2022-09-12T06:26:47;117.53;;;105.20;;
4049;SDS011;2039;50.894;6.888;2022-09-12T06:29:13;123.60;;;110.77;;
4049;SDS011;2039;50.894;6.888;2022-09-12T06:31:40;130.37;;;117.50;;
4049;SDS011;2039;50.894;6.888;2022-09-12T06:34:08;135.63;;;122.40;;
4049;SDS011;2039;50.894;6.888;2022-09-12T06:36:36;135.60;;;122.50;;
4049;SDS011;2039;50.894;6.888;2022-09-12T06:39:11;129.43;;;116.83;;
4049;SDS011;2039;50.894;6.888;2022-09-12T06:41:38;144.73;;;131.20;;
4049;SDS011;2039;50.894;6.888;2022-09-12T06:44:04;142.73;;;129.27;;
4049;SDS011;2039;50.894;6.888;2022-09-12T06:46:31;147.33;;;133.90;;
4049;SDS011;2039;50.894;6.888;2022-09-12T06:49:00;155.90;;;142.23;;
4049;SDS011;2039;50.894;6.888;2022-09-12T06:51:28;141.40;;;127.90;;
4049;SDS011;2039;50.894;6.888;2022-09-12T06:53:57;153.13;;;139.27;;
4049;SDS011;2039;50.894;6.888;2022-09-12T06:56:24;148.00;;;134.60;;
4049;SDS011;2039;50.894;6.888;2022-09-12T06:58:50;162.70;;;148.77;;
4049;SDS011;2039;50.894;6.888;2022-09-12T07:01:20;173.57;;;159.33;;
4049;SDS011;2039;50.894;6.888;2022-09-12T07:03:48;146.37;;;132.67;;
4049;SDS011;2039;50.894;6.888;2022-09-12T07:06:17;136.53;;;123.37;;
4049;SDS011;2039;50.894;6.888;2022-09-12T07:08:44;146.47;;;133.20;;
4049;SDS011;2039;50.894;6.888;2022-09-12T07:11:18;151.27;;;137.30;;
4049;SDS011;2039;50.894;6.888;2022-09-12T07:13:47;145.87;;;132.70;;
4049;SDS011;2039;50.894;6.888;2022-09-12T07:16:14;173.00;;;158.27;;
4049;SDS011;2039;50.894;6.888;2022-09-12T07:18:41;147.17;;;133.00;;
4049;SDS011;2039;50.894;6.888;2022-09-12T07:21:11;146.27;;;132.47;;
4049;SDS011;2039;50.894;6.888;2022-09-12T07:23:38;132.27;;;119.43;;
4049;SDS011;2039;50.894;6.888;2022-09-12T07:26:06;145.67;;;132.27;;
4049;SDS011;2039;50.894;6.888;2022-09-12T07:28:33;126.47;;;113.83;;
4049;SDS011;2039;50.894;6.888;2022-09-12T07:31:10;130.67;;;117.73;;
4049;SDS011;2039;50.894;6.888;2022-09-12T07:33:43;124.90;;;112.10;;
4049;SDS011;2039;50.894;6.888;2022-09-12T07:36:09;140.13;;;126.77;;
4049;SDS011;2039;50.894;6.888;2022-09-12T07:38:37;133.00;;;119.97;;
4049;SDS011;2039;50.894;6.888;2022-09-12T07:41:13;127.63;;;114.87;;
4049;SDS011;2039;50.894;6.888;2022-09-12T07:43:47;128.47;;;115.57;;
4049;SDS011;2039;50.894;6.888;2022-09-12T07:46:16;118.80;;;106.17;;
4049;SDS011;2039;50.894;6.888;2022-09-12T07:48:41;107.17;;;93.33;;
4049;SDS011;2039;50.894;6.888;2022-09-12T07:51:09;102.33;;;82.33;;
4049;SDS011;2039;50.894;6.888;2022-09-12T07:53:37;114.83;;;101.03;;
4049;SDS011;2039;50.894;6.888;2022-09-12T07:56:05;105.50;;;81.27;;
4049;SDS011;2039;50.894;6.888;2022-09-12T07:58:33;115.00;;;98.93;;
4049;SDS011;2039;50.894;6.888;2022-09-12T08:01:03;106.37;;;80.57;;
4049;SDS011;2039;50.894;6.888;2022-09-12T08:03:31;101.50;;;75.70;;
4049;SDS011;2039;50.894;6.888;2022-09-12T08:06:04;104.20;;;80.97;;
4049;SDS011;2039;50.894;6.888;2022-09-12T08:08:38;103.03;;;69.63;;
4049;SDS011;2039;50.894;6.888;2022-09-12T08:11:06;103.23;;;75.97;;
4049;SDS011;2039;50.894;6.888;2022-09-12T08:13:34;103.00;;;59.50;;
4049;SDS011;2039;50.894;6.888;2022-09-12T08:16:02;98.07;;;64.77;;
4049;SDS011;2039;50.894;6.888;2022-09-12T08:18:30;95.03;;;51.17;;
4049;SDS011;2039;50.894;6.888;2022-09-12T08:21:00;93.40;;;46.30;;
4049;SDS011;2039;50.894;6.888;2022-09-12T08:23:27;93.93;;;38.17;;
4049;SDS011;2039;50.894;6.888;2022-09-12T08:25:57;87.47;;;34.17;;
4049;SDS011;2039;50.894;6.888;2022-09-12T08:28:24;97.83;;;52.47;;
4049;SDS011;2039;50.894;6.888;2022-09-12T08:30:51;93.03;;;40.97;;
4049;SDS011;2039;50.894;6.888;2022-09-12T08:33:17;94.30;;;36.17;;
4049;SDS011;2039;50.894;6.888;2022-09-12T08:35:43;88.20;;;33.20;;
4049;SDS011;2039;50.894;6.888;2022-09-12T08:38:09;90.60;;;36.27;;
4049;SDS011;2039;50.894;6.888;2022-09-12T08:40:56;94.63;;;34.27;;
4049;SDS011;2039;50.894;6.888;2022-09-12T08:43:32;90.90;;;34.53;;
4049;SDS011;2039;50.894;6.888;2022-09-12T08:46:10;94.53;;;33.03;;
4049;SDS011;2039;50.894;6.888;2022-09-12T08:48:41;86.77;;;30.80;;
4049;SDS011;2039;50.894;6.888;2022-09-12T08:51:11;92.63;;;41.70;;
4049;SDS011;2039;50.894;6.888;2022-09-12T08:53:40;97.30;;;39.80;;
4049;SDS011;2039;50.894;6.888;2022-09-12T08:56:08;88.27;;;32.00;;
4049;SDS011;2039;50.894;6.888;2022-09-12T08:58:39;93.67;;;37.90;;
4049;SDS011;2039;50.894;6.888;2022-09-12T09:01:16;92.60;;;36.57;;
4049;SDS011;2039;50.894;6.888;2022-09-12T09:17:59;84.13;;;28.70;;
4049;SDS011;2039;50.894;6.888;2022-09-12T09:26:12;83.87;;;26.87;;
4049;SDS011;2039;50.894;6.888;2022-09-12T09:28:54;88.80;;;36.53;;
4049;SDS011;2039;50.894;6.888;2022-09-12T09:31:27;83.53;;;30.83;;
4049;SDS011;2039;50.894;6.888;2022-09-12T09:33:58;89.50;;;33.33;;
4049;SDS011;2039;50.894;6.888;2022-09-12T09:39:17;86.93;;;30.57;;
4049;SDS011;2039;50.894;6.888;2022-09-12T09:44:35;84.53;;;29.73;;
4049;SDS011;2039;50.894;6.888;2022-09-12T09:47:01;85.53;;;31.60;;
4049;SDS011;2039;50.894;6.888;2022-09-12T09:49:27;79.70;;;26.60;;
4049;SDS011;2039;50.894;6.888;2022-09-12T09:51:56;77.53;;;16.20;;
4049;SDS011;2039;50.894;6.888;2022-09-12T09:57:02;78.30;;;14.60;;
4049;SDS011;2039;50.894;6.888;2022-09-12T09:59:32;80.33;;;14.33;;
4049;SDS011;2039;50.894;6.888;2022-09-12T10:01:59;73.87;;;11.87;;
4049;SDS011;2039;50.894;6.888;2022-09-12T10:04:55;71.60;;;9.10;;
4049;SDS011;2039;50.894;6.888;2022-09-12T10:07:23;71.67;;;9.20;;
4049;SDS011;2039;50.894;6.888;2022-09-12T10:10:04;74.47;;;9.60;;
4049;SDS011;2039;50.894;6.888;2022-09-12T10:12:41;74.20;;;9.60;;
4049;SDS011;2039;50.894;6.888;2022-09-12T10:17:48;75.87;;;9.87;;
4049;SDS011;2039;50.894;6.888;2022-09-12T10:23:28;72.20;;;8.63;;
4049;SDS011;2039;50.894;6.888;2022-09-12T10:25:55;73.10;;;8.13;;
4049;SDS011;2039;50.894;6.888;2022-09-12T10:28:30;70.60;;;8.33;;
4049;SDS011;2039;50.894;6.888;2022-09-12T10:31:01;72.77;;;8.37;;
4049;SDS011;2039;50.894;6.888;2022-09-12T10:33:28;74.10;;;8.20;;
4049;SDS011;2039;50.894;6.888;2022-09-12T10:35:54;71.10;;;7.93;;
4049;SDS011;2039;50.894;6.888;2022-09-12T10:38:25;69.10;;;7.30;;
4049;SDS011;2039;50.894;6.888;2022-09-12T10:41:25;76.40;;;7.70;;
4049;SDS011;2039;50.894;6.888;2022-09-12T10:43:45;72.23;;;6.83;;
4049;SDS011;2039;50.894;6.888;2022-09-12T10:48:43;72.27;;;7.93;;
4049;SDS011;2039;50.894;6.888;2022-09-12T10:53:47;70.57;;;7.07;;
4049;SDS011;2039;50.894;6.888;2022-09-12T10:56:19;68.47;;;8.37;;
4049;SDS011;2039;50.894;6.888;2022-09-12T11:06:25;69.50;;;8.73;;
4049;SDS011;2039;50.894;6.888;2022-09-12T11:09:09;71.40;;;10.17;;
4049;SDS011;2039;50.894;6.888;2022-09-12T11:12:02;70.17;;;9.90;;
4049;SDS011;2039;50.894;6.888;2022-09-12T11:17:03;73.50;;;8.77;;
4049;SDS011;2039;50.894;6.888;2022-09-12T11:32:09;69.13;;;4.73;;
4049;SDS011;2039;50.894;6.888;2022-09-12T11:43:09;67.67;;;4.50;;
4049;SDS011;2039;50.894;6.888;2022-09-12T11:45:50;69.10;;;4.80;;
4049;SDS011;2039;50.894;6.888;2022-09-12T11:51:16;68.20;;;4.90;;
4049;SDS011;2039;50.894;6.888;2022-09-12T11:53:43;67.77;;;4.60;;
4049;SDS011;2039;50.894;6.888;2022-09-12T11:56:16;68.63;;;5.03;;
4049;SDS011;2039;50.894;6.888;2022-09-12T11:58:43;68.33;;;5.10;;
4049;SDS011;2039;50.894;6.888;2022-09-12T12:01:21;67.70;;;5.50;;
4049;SDS011;2039;50.894;6.888;2022-09-12T12:03:51;68.90;;;5.20;;
4049;SDS011;2039;50.894;6.888;2022-09-12T12:06:26;68.27;;;6.40;;
4049;SDS011;2039;50.894;6.888;2022-09-12T12:08:56;68.60;;;5.50;;
4049;SDS011;2039;50.894;6.888;2022-09-12T12:11:27;68.93;;;5.20;;
4049;SDS011;2039;50.894;6.888;2022-09-12T12:14:06;69.63;;;5.80;;
4049;SDS011;2039;50.894;6.888;2022-09-12T12:16:43;67.60;;;4.80;;
4049;SDS011;2039;50.894;6.888;2022-09-12T12:24:13;69.20;;;5.70;;
4049;SDS011;2039;50.894;6.888;2022-09-12T12:34:34;68.10;;;4.00;;
4049;SDS011;2039;50.894;6.888;2022-09-12T12:44:58;69.37;;;4.40;;
4049;SDS011;2039;50.894;6.888;2022-09-12T12:49:58;67.63;;;4.30;;
4049;SDS011;2039;50.894;6.888;2022-09-12T12:52:27;68.47;;;4.70;;
4049;SDS011;2039;50.894;6.888;2022-09-12T12:54:56;68.37;;;4.43;;
4049;SDS011;2039;50.894;6.888;2022-09-12T12:57:28;67.90;;;4.10;;
4049;SDS011;2039;50.894;6.888;2022-09-12T13:02:51;70.30;;;4.87;;
4049;SDS011;2039;50.894;6.888;2022-09-12T13:05:24;68.03;;;4.33;;
4049;SDS011;2039;50.894;6.888;2022-09-12T13:07:52;67.70;;;4.23;;
4049;SDS011;2039;50.894;6.888;2022-09-12T13:10:33;68.40;;;4.40;;
4049;SDS011;2039;50.894;6.888;2022-09-12T13:12:59;68.40;;;4.10;;
4049;SDS011;2039;50.894;6.888;2022-09-12T13:18:02;69.00;;;4.03;;
4049;SDS011;2039;50.894;6.888;2022-09-12T13:20:31;67.67;;;4.27;;
4049;SDS011;2039;50.894;6.888;2022-09-12T13:23:02;68.20;;;4.30;;
4049;SDS011;2039;50.894;6.888;2022-09-12T13:25:29;68.43;;;4.43;;
4049;SDS011;2039;50.894;6.888;2022-09-12T13:30:25;69.33;;;4.50;;
4049;SDS011;2039;50.894;6.888;2022-09-12T13:32:52;68.50;;;3.67;;
4049;SDS011;2039;50.894;6.888;2022-09-12T13:40:56;71.73;;;4.10;;
4049;SDS011;2039;50.894;6.888;2022-09-12T13:43:40;70.13;;;3.90;;
4049;SDS011;2039;50.894;6.888;2022-09-12T13:46:08;68.17;;;3.87;;
4049;SDS011;2039;50.894;6.888;2022-09-12T13:48:43;68.43;;;4.40;;
4049;SDS011;2039;50.894;6.888;2022-09-12T13:51:18;67.47;;;4.00;;
4049;SDS011;2039;50.894;6.888;2022-09-12T13:53:47;67.40;;;3.90;;
4049;SDS011;2039;50.894;6.888;2022-09-12T13:56:15;68.70;;;4.57;;
4049;SDS011;2039;50.894;6.888;2022-09-12T14:01:22;67.60;;;4.30;;
4049;SDS011;2039;50.894;6.888;2022-09-12T14:03:50;68.10;;;3.97;;
4049;SDS011;2039;50.894;6.888;2022-09-12T14:06:49;67.43;;;4.13;;
4049;SDS011;2039;50.894;6.888;2022-09-12T14:09:23;67.63;;;4.53;;
4049;SDS011;2039;50.894;6.888;2022-09-12T14:11:52;67.60;;;4.40;;
4049;SDS011;2039;50.894;6.888;2022-09-12T14:17:00;68.47;;;4.47;;
4049;SDS011;2039;50.894;6.888;2022-09-12T14:19:39;69.57;;;4.50;;
4049;SDS011;2039;50.894;6.888;2022-09-12T14:22:08;67.50;;;4.40;;
4049;SDS011;2039;50.894;6.888;2022-09-12T14:24:43;67.57;;;4.17;;
4049;SDS011;2039;50.894;6.888;2022-09-12T14:27:25;69.70;;;4.53;;
4049;SDS011;2039;50.894;6.888;2022-09-12T14:29:56;68.27;;;4.80;;
4049;SDS011;2039;50.894;6.888;2022-09-12T14:32:26;67.37;;;4.20;;
4049;SDS011;2039;50.894;6.888;2022-09-12T14:35:25;69.00;;;4.80;;
4049;SDS011;2039;50.894;6.888;2022-09-12T14:37:47;67.87;;;4.27;;
4049;SDS011;2039;50.894;6.888;2022-09-12T14:40:16;69.00;;;4.40;;
4049;SDS011;2039;50.894;6.888;2022-09-12T14:42:44;70.40;;;4.60;;
4049;SDS011;2039;50.894;6.888;2022-09-12T14:45:15;68.07;;;4.93;;
4049;SDS011;2039;50.894;6.888;2022-09-12T14:47:48;70.37;;;4.93;;
4049;SDS011;2039;50.894;6.888;2022-09-12T14:50:24;68.50;;;4.27;;
4049;SDS011;2039;50.894;6.888;2022-09-12T14:53:19;67.80;;;4.43;;
4049;SDS011;2039;50.894;6.888;2022-09-12T14:55:52;70.03;;;4.67;;
4049;SDS011;2039;50.894;6.888;2022-09-12T14:58:24;67.60;;;4.17;;
4049;SDS011;2039;50.894;6.888;2022-09-12T15:04:09;69.90;;;4.70;;
4049;SDS011;2039;50.894;6.888;2022-09-12T15:06:21;69.00;;;4.43;;
4049;SDS011;2039;50.894;6.888;2022-09-12T15:08:47;67.90;;;4.10;;
4049;SDS011;2039;50.894;6.888;2022-09-12T15:11:13;68.87;;;4.60;;
4049;SDS011;2039;50.894;6.888;2022-09-12T15:13:40;67.97;;;4.63;;
4049;SDS011;2039;50.894;6.888;2022-09-12T15:16:06;67.53;;;4.10;;
4049;SDS011;2039;50.894;6.888;2022-09-12T15:18:34;68.10;;;4.40;;
4049;SDS011;2039;50.894;6.888;2022-09-12T15:21:01;69.63;;;4.87;;
4049;SDS011;2039;50.894;6.888;2022-09-12T15:26:15;67.97;;;4.70;;
4049;SDS011;2039;50.894;6.888;2022-09-12T15:28:42;68.97;;;4.97;;
4049;SDS011;2039;50.894;6.888;2022-09-12T15:31:12;67.17;;;4.30;;
4049;SDS011;2039;50.894;6.888;2022-09-12T15:33:40;67.67;;;4.57;;
4049;SDS011;2039;50.894;6.888;2022-09-12T15:36:13;68.33;;;4.60;;
4049;SDS011;2039;50.894;6.888;2022-09-12T15:38:41;67.80;;;4.23;;
4049;SDS011;2039;50.894;6.888;2022-09-12T15:41:12;72.60;;;4.90;;
4049;SDS011;2039;50.894;6.888;2022-09-12T15:43:41;68.03;;;4.73;;
4049;SDS011;2039;50.894;6.888;2022-09-12T15:46:11;70.17;;;5.17;;
4049;SDS011;2039;50.894;6.888;2022-09-12T15:48:38;68.10;;;4.80;;
4049;SDS011;2039;50.894;6.888;2022-09-12T15:51:04;68.57;;;3.93;;
4049;SDS011;2039;50.894;6.888;2022-09-12T15:53:34;68.40;;;5.03;;
4049;SDS011;2039;50.894;6.888;2022-09-12T15:56:00;67.13;;;4.33;;
4049;SDS011;2039;50.894;6.888;2022-09-12T15:58:26;73.40;;;4.90;;
4049;SDS011;2039;50.894;6.888;2022-09-12T16:00:51;67.93;;;4.50;;
4049;SDS011;2039;50.894;6.888;2022-09-12T16:03:24;69.97;;;4.27;;
4049;SDS011;2039;50.894;6.888;2022-09-12T16:05:54;67.13;;;4.00;;
4049;SDS011;2039;50.894;6.888;2022-09-12T16:08:21;68.30;;;4.20;;
4049;SDS011;2039;50.894;6.888;2022-09-12T16:10:48;68.53;;;4.30;;
4049;SDS011;2039;50.894;6.888;2022-09-12T16:13:17;70.60;;;4.60;;
4049;SDS011;2039;50.894;6.888;2022-09-12T16:15:43;67.57;;;4.23;;
4049;SDS011;2039;50.894;6.888;2022-09-12T16:18:08;67.90;;;4.37;;
4049;SDS011;2039;50.894;6.888;2022-09-12T16:20:37;68.80;;;4.80;;
4049;SDS011;2039;50.894;6.888;2022-09-12T16:23:03;66.90;;;3.30;;
4049;SDS011;2039;50.894;6.888;2022-09-12T16:25:29;69.13;;;3.77;;
4049;SDS011;2039;50.894;6.888;2022-09-12T16:27:55;67.67;;;3.70;;
4049;SDS011;2039;50.894;6.888;2022-09-12T16:30:20;68.30;;;3.63;;
4049;SDS011;2039;50.894;6.888;2022-09-12T16:32:46;71.07;;;4.13;;
4049;SDS011;2039;50.894;6.888;2022-09-12T16:35:12;69.53;;;3.80;;
4049;SDS011;2039;50.894;6.888;2022-09-12T16:37:37;69.47;;;3.23;;
4049;SDS011;2039;50.894;6.888;2022-09-12T16:40:03;69.17;;;3.60;;
4049;SDS011;2039;50.894;6.888;2022-09-12T16:42:30;67.03;;;3.30;;
4049;SDS011;2039;50.894;6.888;2022-09-12T16:44:55;67.77;;;3.63;;
4049;SDS011;2039;50.894;6.888;2022-09-12T16:47:21;67.07;;;3.03;;
4049;SDS011;2039;50.894;6.888;2022-09-12T16:49:47;67.00;;;3.70;;
4049;SDS011;2039;50.894;6.888;2022-09-12T16:52:15;68.27;;;2.87;;
4049;SDS011;2039;50.894;6.888;2022-09-12T16:54:41;67.30;;;3.00;;
4049;SDS011;2039;50.894;6.888;2022-09-12T16:57:08;67.60;;;3.20;;
4049;SDS011;2039;50.894;6.888;2022-09-12T16:59:35;66.80;;;2.87;;
4049;SDS011;2039;50.894;6.888;2022-09-12T17:02:01;66.80;;;3.40;;
4049;SDS011;2039;50.894;6.888;2022-09-12T17:04:27;67.00;;;3.40;;
4049;SDS011;2039;50.894;6.888;2022-09-12T17:06:52;70.60;;;3.70;;
4049;SDS011;2039;50.894;6.888;2022-09-12T17:09:18;67.07;;;3.57;;
4049;SDS011;2039;50.894;6.888;2022-09-12T17:11:45;68.80;;;3.80;;
4049;SDS011;2039;50.894;6.888;2022-09-12T17:14:13;73.67;;;3.20;;
4049;SDS011;2039;50.894;6.888;2022-09-12T17:16:40;67.30;;;3.30;;
4049;SDS011;2039;50.894;6.888;2022-09-12T17:19:10;67.80;;;2.77;;
4049;SDS011;2039;50.894;6.888;2022-09-12T17:21:40;67.37;;;3.50;;
4049;SDS011;2039;50.894;6.888;2022-09-12T17:24:05;66.47;;;3.50;;
4049;SDS011;2039;50.894;6.888;2022-09-12T17:26:31;66.57;;;3.57;;
4049;SDS011;2039;50.894;6.888;2022-09-12T17:28:57;68.03;;;3.70;;
4049;SDS011;2039;50.894;6.888;2022-09-12T17:31:22;66.77;;;3.57;;
4049;SDS011;2039;50.894;6.888;2022-09-12T17:33:48;66.43;;;3.33;;
4049;SDS011;2039;50.894;6.888;2022-09-12T17:36:15;70.60;;;3.73;;
4049;SDS011;2039;50.894;6.888;2022-09-12T17:38:42;77.50;;;6.50;;
4049;SDS011;2039;50.894;6.888;2022-09-12T17:41:10;71.50;;;3.70;;
4049;SDS011;2039;50.894;6.888;2022-09-12T17:43:47;71.47;;;3.60;;
4049;SDS011;2039;50.894;6.888;2022-09-12T17:46:16;67.43;;;4.10;;
4049;SDS011;2039;50.894;6.888;2022-09-12T17:48:43;67.47;;;3.77;;
4049;SDS011;2039;50.894;6.888;2022-09-12T17:51:09;67.90;;;3.87;;
4049;SDS011;2039;50.894;6.888;2022-09-12T17:53:37;67.00;;;3.60;;
4049;SDS011;2039;50.894;6.888;2022-09-12T17:56:04;67.40;;;3.63;;
4049;SDS011;2039;50.894;6.888;2022-09-12T17:58:30;67.30;;;3.70;;